sensor_id;sensor_type;location;lat;lon;timestamp;P1;durP1;ratioP1;P2;durP2;ratioP2
10319;SDS011;5205;52.168;5.420;2023-07-20T00:01:10;2.90;;;2.17;;
10319;SDS011;5205;52.168;5.420;2023-07-20T00:03:37;4.07;;;2.38;;
10319;SDS011;5205;52.168;5.420;2023-07-20T00:06:04;4.03;;;2.55;;
10319;SDS011;5205;52.168;5.420;2023-07-20T00:08:31;7.30;;;2.13;;
10319;SDS011;5205;52.168;5.420;2023-07-20T00:10:59;4.95;;;2.00;;
10319;SDS011;5205;52.168;5.420;2023-07-20T00:13:26;3.17;;;1.80;;
10319;SDS011;5205;52.168;5.420;2023-07-20T00:15:54;3.22;;;1.92;;
10319;SDS011;5205;52.168;5.420;2023-07-20T00:18:22;3.70;;;2.00;;
10319;SDS011;5205;52.168;5.420;2023-07-20T00:20:49;4.70;;;2.05;;
10319;SDS011;5205;52.168;5.420;2023-07-20T00:23:17;2.40;;;1.58;;
10319;SDS011;5205;52.168;5.420;2023-07-20T00:25:47;2.78;;;1.70;;
10319;SDS011;5205;52.168;5.420;2023-07-20T00:28:14;2.50;;;1.60;;
10319;SDS011;5205;52.168;5.420;2023-07-20T00:30:41;3.03;;;1.40;;
10319;SDS011;5205;52.168;5.420;2023-07-20T00:33:11;2.45;;;1.65;;
10319;SDS011;5205;52.168;5.420;2023-07-20T00:35:38;1.92;;;1.30;;
10319;SDS011;5205;52.168;5.420;2023-07-20T00:38:05;2.85;;;1.20;;
10319;SDS011;5205;52.168;5.420;2023-07-20T00:40:35;2.78;;;1.15;;
10319;SDS011;5205;52.168;5.420;2023-07-20T00:43:03;2.28;;;1.35;;
10319;SDS011;5205;52.168;5.420;2023-07-20T00:45:30;2.05;;;1.23;;
10319;SDS011;5205;52.168;5.420;2023-07-20T00:47:57;1.80;;;1.00;;
10319;SDS011;5205;52.168;5.420;2023-07-20T00:50:26;1.80;;;1.20;;
10319;SDS011;5205;52.168;5.420;2023-07-20T00:52:55;2.22;;;1.30;;
10319;SDS011;5205;52.168;5.420;2023-07-20T00:55:23;3.00;;;1.23;;
10319;SDS011;5205;52.168;5.420;2023-07-20T00:57:51;2.97;;;1.17;;
10319;SDS011;5205;52.168;5.420;2023-07-20T01:00:18;2.55;;;1.33;;
10319;SDS011;5205;52.168;5.420;2023-07-20T01:02:45;2.58;;;1.42;;
10319;SDS011;5205;52.168;5.420;2023-07-20T01:05:13;2.08;;;1.27;;
10319;SDS011;5205;52.168;5.420;2023-07-20T01:07:45;2.38;;;1.20;;
10319;SDS011;5205;52.168;5.420;2023-07-20T01:10:16;3.95;;;1.35;;
10319;SDS011;5205;52.168;5.420;2023-07-20T01:12:46;2.38;;;1.30;;
10319;SDS011;5205;52.168;5.420;2023-07-20T01:15:13;2.20;;;1.42;;
10319;SDS011;5205;52.168;5.420;2023-07-20T01:17:40;2.05;;;1.30;;
10319;SDS011;5205;52.168;5.420;2023-07-20T01:20:09;3.83;;;1.50;;
10319;SDS011;5205;52.168;5.420;2023-07-20T01:22:51;1.83;;;1.20;;
10319;SDS011;5205;52.168;5.420;2023-07-20T01:25:31;1.80;;;1.20;;
10319;SDS011;5205;52.168;5.420;2023-07-20T01:28:21;2.42;;;1.40;;
10319;SDS011;5205;52.168;5.420;2023-07-20T01:30:52;1.90;;;1.10;;
10319;SDS011;5205;52.168;5.420;2023-07-20T01:33:24;1.63;;;1.02;;
10319;SDS011;5205;52.168;5.420;2023-07-20T01:35:52;1.83;;;1.10;;
10319;SDS011;5205;52.168;5.420;2023-07-20T01:38:20;3.03;;;1.27;;
10319;SDS011;5205;52.168;5.420;2023-07-20T01:40:48;2.05;;;1.30;;
10319;SDS011;5205;52.168;5.420;2023-07-20T01:43:16;2.60;;;1.25;;
10319;SDS011;5205;52.168;5.420;2023-07-20T01:45:43;2.47;;;1.23;;
10319;SDS011;5205;52.168;5.420;2023-07-20T01:48:10;2.22;;;1.48;;
10319;SDS011;5205;52.168;5.420;2023-07-20T01:50:39;1.75;;;1.20;;
10319;SDS011;5205;52.168;5.420;2023-07-20T01:53:06;1.85;;;1.15;;
10319;SDS011;5205;52.168;5.420;2023-07-20T01:55:33;2.15;;;1.50;;
10319;SDS011;5205;52.168;5.420;2023-07-20T01:58:00;5.20;;;1.67;;
10319;SDS011;5205;52.168;5.420;2023-07-20T02:00:28;4.47;;;1.85;;
10319;SDS011;5205;52.168;5.420;2023-07-20T02:02:55;2.60;;;1.73;;
10319;SDS011;5205;52.168;5.420;2023-07-20T02:05:22;2.67;;;2.08;;
10319;SDS011;5205;52.168;5.420;2023-07-20T02:07:51;3.00;;;2.17;;
10319;SDS011;5205;52.168;5.420;2023-07-20T02:10:18;5.70;;;2.03;;
10319;SDS011;5205;52.168;5.420;2023-07-20T02:12:45;2.63;;;2.03;;
10319;SDS011;5205;52.168;5.420;2023-07-20T02:15:13;2.60;;;1.90;;
10319;SDS011;5205;52.168;5.420;2023-07-20T02:17:41;3.83;;;2.13;;
10319;SDS011;5205;52.168;5.420;2023-07-20T02:20:09;4.30;;;1.90;;
10319;SDS011;5205;52.168;5.420;2023-07-20T02:22:36;2.85;;;1.90;;
10319;SDS011;5205;52.168;5.420;2023-07-20T02:25:05;3.13;;;1.88;;
10319;SDS011;5205;52.168;5.420;2023-07-20T02:27:33;4.63;;;2.40;;
10319;SDS011;5205;52.168;5.420;2023-07-20T02:30:00;3.80;;;2.25;;
10319;SDS011;5205;52.168;5.420;2023-07-20T02:32:27;2.90;;;2.00;;
10319;SDS011;5205;52.168;5.420;2023-07-20T02:34:54;4.43;;;2.20;;
10319;SDS011;5205;52.168;5.420;2023-07-20T02:37:21;3.10;;;2.08;;
10319;SDS011;5205;52.168;5.420;2023-07-20T02:39:49;5.03;;;2.53;;
10319;SDS011;5205;52.168;5.420;2023-07-20T02:42:17;3.47;;;2.30;;
10319;SDS011;5205;52.168;5.420;2023-07-20T02:44:47;4.63;;;2.67;;
10319;SDS011;5205;52.168;5.420;2023-07-20T02:47:14;4.35;;;2.05;;
10319;SDS011;5205;52.168;5.420;2023-07-20T02:49:41;4.05;;;2.60;;
10319;SDS011;5205;52.168;5.420;2023-07-20T02:52:09;3.70;;;2.10;;
10319;SDS011;5205;52.168;5.420;2023-07-20T02:54:36;5.90;;;2.38;;
10319;SDS011;5205;52.168;5.420;2023-07-20T02:57:03;3.80;;;2.30;;
10319;SDS011;5205;52.168;5.420;2023-07-20T02:59:32;3.05;;;2.10;;
10319;SDS011;5205;52.168;5.420;2023-07-20T03:01:59;2.92;;;2.20;;
10319;SDS011;5205;52.168;5.420;2023-07-20T03:04:26;3.30;;;2.17;;
10319;SDS011;5205;52.168;5.420;2023-07-20T03:06:53;5.03;;;2.63;;
10319;SDS011;5205;52.168;5.420;2023-07-20T03:09:20;3.47;;;2.30;;
10319;SDS011;5205;52.168;5.420;2023-07-20T03:11:49;2.90;;;2.03;;
10319;SDS011;5205;52.168;5.420;2023-07-20T03:14:16;3.35;;;2.30;;
10319;SDS011;5205;52.168;5.420;2023-07-20T03:16:45;3.85;;;2.40;;
10319;SDS011;5205;52.168;5.420;2023-07-20T03:19:12;4.07;;;2.00;;
10319;SDS011;5205;52.168;5.420;2023-07-20T03:21:39;3.85;;;2.40;;
10319;SDS011;5205;52.168;5.420;2023-07-20T03:24:06;3.25;;;2.42;;
10319;SDS011;5205;52.168;5.420;2023-07-20T03:26:34;3.97;;;2.38;;
10319;SDS011;5205;52.168;5.420;2023-07-20T03:29:02;2.75;;;2.28;;
10319;SDS011;5205;52.168;5.420;2023-07-20T03:31:29;3.88;;;2.38;;
10319;SDS011;5205;52.168;5.420;2023-07-20T03:33:57;3.70;;;2.38;;
10319;SDS011;5205;52.168;5.420;2023-07-20T03:36:24;2.78;;;1.92;;
10319;SDS011;5205;52.168;5.420;2023-07-20T03:38:51;4.35;;;2.30;;
10319;SDS011;5205;52.168;5.420;2023-07-20T03:41:18;4.32;;;2.50;;
10319;SDS011;5205;52.168;5.420;2023-07-20T03:43:46;3.35;;;2.13;;
10319;SDS011;5205;52.168;5.420;2023-07-20T03:46:14;4.45;;;2.00;;
10319;SDS011;5205;52.168;5.420;2023-07-20T03:48:41;7.22;;;2.05;;
10319;SDS011;5205;52.168;5.420;2023-07-20T03:51:09;2.97;;;2.17;;
10319;SDS011;5205;52.168;5.420;2023-07-20T03:53:36;4.60;;;2.97;;
10319;SDS011;5205;52.168;5.420;2023-07-20T03:56:04;4.20;;;2.58;;
10319;SDS011;5205;52.168;5.420;2023-07-20T03:58:31;4.32;;;2.60;;
10319;SDS011;5205;52.168;5.420;2023-07-20T04:00:58;4.88;;;2.50;;
10319;SDS011;5205;52.168;5.420;2023-07-20T04:03:25;4.20;;;2.33;;
10319;SDS011;5205;52.168;5.420;2023-07-20T04:05:53;3.60;;;2.53;;
10319;SDS011;5205;52.168;5.420;2023-07-20T04:08:22;6.68;;;2.17;;
10319;SDS011;5205;52.168;5.420;2023-07-20T04:10:49;4.95;;;2.40;;
10319;SDS011;5205;52.168;5.420;2023-07-20T04:13:17;4.65;;;2.42;;
10319;SDS011;5205;52.168;5.420;2023-07-20T04:15:44;4.43;;;2.58;;
10319;SDS011;5205;52.168;5.420;2023-07-20T04:18:11;3.65;;;2.30;;
10319;SDS011;5205;52.168;5.420;2023-07-20T04:20:39;3.95;;;2.47;;
10319;SDS011;5205;52.168;5.420;2023-07-20T04:23:07;3.80;;;2.42;;
10319;SDS011;5205;52.168;5.420;2023-07-20T04:25:35;5.25;;;2.50;;
10319;SDS011;5205;52.168;5.420;2023-07-20T04:28:05;3.58;;;2.00;;
10319;SDS011;5205;52.168;5.420;2023-07-20T04:30:34;5.97;;;2.33;;
10319;SDS011;5205;52.168;5.420;2023-07-20T04:33:02;5.32;;;2.42;;
10319;SDS011;5205;52.168;5.420;2023-07-20T04:35:45;3.83;;;2.58;;
10319;SDS011;5205;52.168;5.420;2023-07-20T04:38:13;4.93;;;2.60;;
10319;SDS011;5205;52.168;5.420;2023-07-20T04:40:43;6.93;;;2.60;;
10319;SDS011;5205;52.168;5.420;2023-07-20T04:43:11;4.75;;;2.20;;
10319;SDS011;5205;52.168;5.420;2023-07-20T04:45:38;3.55;;;2.30;;
10319;SDS011;5205;52.168;5.420;2023-07-20T04:48:07;3.67;;;2.40;;
10319;SDS011;5205;52.168;5.420;2023-07-20T04:50:36;4.80;;;2.90;;
10319;SDS011;5205;52.168;5.420;2023-07-20T04:53:03;6.47;;;3.08;;
10319;SDS011;5205;52.168;5.420;2023-07-20T04:55:30;4.40;;;2.85;;
10319;SDS011;5205;52.168;5.420;2023-07-20T04:58:00;8.65;;;2.88;;
10319;SDS011;5205;52.168;5.420;2023-07-20T05:00:27;5.22;;;3.05;;
10319;SDS011;5205;52.168;5.420;2023-07-20T05:02:54;4.13;;;2.63;;
10319;SDS011;5205;52.168;5.420;2023-07-20T05:05:21;3.85;;;2.30;;
10319;SDS011;5205;52.168;5.420;2023-07-20T05:07:49;4.20;;;2.38;;
10319;SDS011;5205;52.168;5.420;2023-07-20T05:10:17;3.38;;;2.10;;
10319;SDS011;5205;52.168;5.420;2023-07-20T05:12:44;4.88;;;2.83;;
10319;SDS011;5205;52.168;5.420;2023-07-20T05:15:12;3.25;;;2.40;;
10319;SDS011;5205;52.168;5.420;2023-07-20T05:17:40;4.47;;;2.75;;
10319;SDS011;5205;52.168;5.420;2023-07-20T05:20:07;9.88;;;2.83;;
10319;SDS011;5205;52.168;5.420;2023-07-20T05:22:37;4.47;;;2.70;;
10319;SDS011;5205;52.168;5.420;2023-07-20T05:25:05;7.55;;;2.80;;
10319;SDS011;5205;52.168;5.420;2023-07-20T05:27:33;5.40;;;2.55;;
10319;SDS011;5205;52.168;5.420;2023-07-20T05:30:00;5.00;;;2.42;;
10319;SDS011;5205;52.168;5.420;2023-07-20T05:32:29;8.02;;;2.72;;
10319;SDS011;5205;52.168;5.420;2023-07-20T05:34:56;8.95;;;2.67;;
10319;SDS011;5205;52.168;5.420;2023-07-20T05:37:24;4.40;;;2.33;;
10319;SDS011;5205;52.168;5.420;2023-07-20T05:39:51;4.15;;;2.45;;
10319;SDS011;5205;52.168;5.420;2023-07-20T05:42:18;4.18;;;2.63;;
10319;SDS011;5205;52.168;5.420;2023-07-20T05:44:45;5.32;;;3.00;;
10319;SDS011;5205;52.168;5.420;2023-07-20T05:47:14;3.47;;;2.38;;
10319;SDS011;5205;52.168;5.420;2023-07-20T05:49:43;5.00;;;2.85;;
10319;SDS011;5205;52.168;5.420;2023-07-20T05:52:10;6.07;;;3.03;;
10319;SDS011;5205;52.168;5.420;2023-07-20T05:54:37;4.43;;;2.45;;
10319;SDS011;5205;52.168;5.420;2023-07-20T05:57:04;4.25;;;2.35;;
10319;SDS011;5205;52.168;5.420;2023-07-20T05:59:32;4.30;;;2.33;;
10319;SDS011;5205;52.168;5.420;2023-07-20T06:01:59;4.22;;;2.83;;
10319;SDS011;5205;52.168;5.420;2023-07-20T06:04:26;3.92;;;2.60;;
10319;SDS011;5205;52.168;5.420;2023-07-20T06:06:54;3.33;;;2.10;;
10319;SDS011;5205;52.168;5.420;2023-07-20T06:09:22;6.97;;;2.53;;
10319;SDS011;5205;52.168;5.420;2023-07-20T06:11:49;3.88;;;2.40;;
10319;SDS011;5205;52.168;5.420;2023-07-20T06:14:16;4.25;;;2.10;;
10319;SDS011;5205;52.168;5.420;2023-07-20T06:16:43;4.03;;;2.25;;
10319;SDS011;5205;52.168;5.420;2023-07-20T06:19:10;4.90;;;2.00;;
10319;SDS011;5205;52.168;5.420;2023-07-20T06:21:37;4.18;;;1.85;;
10319;SDS011;5205;52.168;5.420;2023-07-20T06:24:06;3.10;;;1.50;;
10319;SDS011;5205;52.168;5.420;2023-07-20T06:26:33;2.08;;;1.27;;
10319;SDS011;5205;52.168;5.420;2023-07-20T06:29:03;1.65;;;1.20;;
10319;SDS011;5205;52.168;5.420;2023-07-20T06:31:31;4.97;;;1.13;;
10319;SDS011;5205;52.168;5.420;2023-07-20T06:33:58;3.65;;;1.73;;
10319;SDS011;5205;52.168;5.420;2023-07-20T06:36:26;2.63;;;1.33;;
10319;SDS011;5205;52.168;5.420;2023-07-20T06:38:53;2.95;;;1.23;;
10319;SDS011;5205;52.168;5.420;2023-07-20T06:41:21;3.10;;;1.33;;
10319;SDS011;5205;52.168;5.420;2023-07-20T06:43:49;3.70;;;0.93;;
10319;SDS011;5205;52.168;5.420;2023-07-20T06:46:17;1.50;;;0.90;;
10319;SDS011;5205;52.168;5.420;2023-07-20T06:48:44;1.63;;;0.93;;
10319;SDS011;5205;52.168;5.420;2023-07-20T06:51:11;1.80;;;1.05;;
10319;SDS011;5205;52.168;5.420;2023-07-20T06:53:38;2.08;;;1.05;;
10319;SDS011;5205;52.168;5.420;2023-07-20T06:56:06;2.60;;;1.00;;
10319;SDS011;5205;52.168;5.420;2023-07-20T06:58:34;4.00;;;1.10;;
10319;SDS011;5205;52.168;5.420;2023-07-20T07:01:04;1.95;;;1.00;;
10319;SDS011;5205;52.168;5.420;2023-07-20T07:03:32;2.70;;;1.13;;
10319;SDS011;5205;52.168;5.420;2023-07-20T07:05:59;3.47;;;1.15;;
10319;SDS011;5205;52.168;5.420;2023-07-20T07:08:27;2.22;;;1.17;;
10319;SDS011;5205;52.168;5.420;2023-07-20T07:10:54;1.30;;;0.82;;
10319;SDS011;5205;52.168;5.420;2023-07-20T07:13:21;3.05;;;1.00;;
10319;SDS011;5205;52.168;5.420;2023-07-20T07:15:50;4.10;;;1.20;;
10319;SDS011;5205;52.168;5.420;2023-07-20T07:18:17;4.03;;;1.13;;
10319;SDS011;5205;52.168;5.420;2023-07-20T07:20:50;2.17;;;1.10;;
10319;SDS011;5205;52.168;5.420;2023-07-20T07:23:17;2.30;;;1.38;;
10319;SDS011;5205;52.168;5.420;2023-07-20T07:25:44;1.77;;;1.00;;
10319;SDS011;5205;52.168;5.420;2023-07-20T07:28:12;2.70;;;0.82;;
10319;SDS011;5205;52.168;5.420;2023-07-20T07:30:39;2.63;;;0.88;;
10319;SDS011;5205;52.168;5.420;2023-07-20T07:33:07;2.03;;;0.77;;
10319;SDS011;5205;52.168;5.420;2023-07-20T07:35:35;2.85;;;1.13;;
10319;SDS011;5205;52.168;5.420;2023-07-20T07:38:02;2.03;;;1.10;;
10319;SDS011;5205;52.168;5.420;2023-07-20T07:40:30;1.92;;;1.08;;
10319;SDS011;5205;52.168;5.420;2023-07-20T07:42:57;2.30;;;1.10;;
10319;SDS011;5205;52.168;5.420;2023-07-20T07:45:24;1.48;;;0.95;;
10319;SDS011;5205;52.168;5.420;2023-07-20T07:47:51;1.20;;;0.70;;
10319;SDS011;5205;52.168;5.420;2023-07-20T07:50:20;2.60;;;0.85;;
10319;SDS011;5205;52.168;5.420;2023-07-20T07:52:47;1.92;;;0.80;;
10319;SDS011;5205;52.168;5.420;2023-07-20T07:55:14;1.10;;;0.65;;
10319;SDS011;5205;52.168;5.420;2023-07-20T07:57:42;1.33;;;0.50;;
10319;SDS011;5205;52.168;5.420;2023-07-20T08:00:10;2.40;;;0.60;;
10319;SDS011;5205;52.168;5.420;2023-07-20T08:02:39;3.42;;;0.90;;
10319;SDS011;5205;52.168;5.420;2023-07-20T08:05:07;1.13;;;0.60;;
10319;SDS011;5205;52.168;5.420;2023-07-20T08:07:35;1.05;;;0.60;;
10319;SDS011;5205;52.168;5.420;2023-07-20T08:10:03;1.73;;;0.70;;
10319;SDS011;5205;52.168;5.420;2023-07-20T08:12:30;0.77;;;0.70;;
10319;SDS011;5205;52.168;5.420;2023-07-20T08:14:57;1.33;;;0.57;;
10319;SDS011;5205;52.168;5.420;2023-07-20T08:17:24;1.13;;;0.70;;
10319;SDS011;5205;52.168;5.420;2023-07-20T08:19:51;2.15;;;0.73;;
10319;SDS011;5205;52.168;5.420;2023-07-20T08:22:18;2.55;;;0.68;;
10319;SDS011;5205;52.168;5.420;2023-07-20T08:24:47;3.13;;;0.70;;
10319;SDS011;5205;52.168;5.420;2023-07-20T08:27:14;0.60;;;0.40;;
10319;SDS011;5205;52.168;5.420;2023-07-20T08:29:41;2.00;;;0.65;;
10319;SDS011;5205;52.168;5.420;2023-07-20T08:32:08;4.25;;;0.80;;
10319;SDS011;5205;52.168;5.420;2023-07-20T08:34:36;0.63;;;0.43;;
10319;SDS011;5205;52.168;5.420;2023-07-20T08:37:03;0.82;;;0.60;;
10319;SDS011;5205;52.168;5.420;2023-07-20T08:39:30;1.23;;;0.63;;
10319;SDS011;5205;52.168;5.420;2023-07-20T08:41:59;0.80;;;0.60;;
10319;SDS011;5205;52.168;5.420;2023-07-20T08:44:29;1.67;;;0.90;;
10319;SDS011;5205;52.168;5.420;2023-07-20T08:46:56;3.33;;;0.70;;
10319;SDS011;5205;52.168;5.420;2023-07-20T08:49:24;2.55;;;0.80;;
10319;SDS011;5205;52.168;5.420;2023-07-20T08:51:51;0.77;;;0.60;;
10319;SDS011;5205;52.168;5.420;2023-07-20T08:54:19;2.55;;;0.60;;
10319;SDS011;5205;52.168;5.420;2023-07-20T08:56:46;1.25;;;0.60;;
10319;SDS011;5205;52.168;5.420;2023-07-20T08:59:16;2.00;;;0.70;;
10319;SDS011;5205;52.168;5.420;2023-07-20T09:01:43;1.10;;;0.60;;
10319;SDS011;5205;52.168;5.420;2023-07-20T09:04:11;1.38;;;0.60;;
10319;SDS011;5205;52.168;5.420;2023-07-20T09:06:39;0.82;;;0.50;;
10319;SDS011;5205;52.168;5.420;2023-07-20T09:09:06;0.80;;;0.50;;
10319;SDS011;5205;52.168;5.420;2023-07-20T09:11:33;1.88;;;0.70;;
10319;SDS011;5205;52.168;5.420;2023-07-20T09:14:03;1.02;;;0.55;;
10319;SDS011;5205;52.168;5.420;2023-07-20T09:16:32;1.83;;;0.55;;
10319;SDS011;5205;52.168;5.420;2023-07-20T09:18:59;2.28;;;0.50;;
10319;SDS011;5205;52.168;5.420;2023-07-20T09:21:28;0.85;;;0.50;;
10319;SDS011;5205;52.168;5.420;2023-07-20T09:23:56;0.70;;;0.40;;
10319;SDS011;5205;52.168;5.420;2023-07-20T09:26:23;3.25;;;0.75;;
10319;SDS011;5205;52.168;5.420;2023-07-20T09:28:52;0.90;;;0.50;;
10319;SDS011;5205;52.168;5.420;2023-07-20T09:31:21;0.95;;;0.60;;
10319;SDS011;5205;52.168;5.420;2023-07-20T09:33:52;2.10;;;0.60;;
10319;SDS011;5205;52.168;5.420;2023-07-20T09:36:20;0.50;;;0.40;;
10319;SDS011;5205;52.168;5.420;2023-07-20T09:38:47;1.20;;;0.52;;
10319;SDS011;5205;52.168;5.420;2023-07-20T09:41:14;0.55;;;0.30;;
10319;SDS011;5205;52.168;5.420;2023-07-20T09:43:42;4.25;;;0.45;;
10319;SDS011;5205;52.168;5.420;2023-07-20T09:46:09;0.60;;;0.50;;
10319;SDS011;5205;52.168;5.420;2023-07-20T09:48:36;1.27;;;0.55;;
10319;SDS011;5205;52.168;5.420;2023-07-20T09:51:05;2.13;;;0.65;;
10319;SDS011;5205;52.168;5.420;2023-07-20T09:53:33;1.08;;;0.68;;
10319;SDS011;5205;52.168;5.420;2023-07-20T09:56:01;1.20;;;0.60;;
10319;SDS011;5205;52.168;5.420;2023-07-20T09:58:29;2.10;;;0.70;;
10319;SDS011;5205;52.168;5.420;2023-07-20T10:01:00;0.98;;;0.68;;
10319;SDS011;5205;52.168;5.420;2023-07-20T10:03:29;1.17;;;0.70;;
10319;SDS011;5205;52.168;5.420;2023-07-20T10:05:57;1.45;;;0.50;;
10319;SDS011;5205;52.168;5.420;2023-07-20T10:08:26;1.20;;;0.47;;
10319;SDS011;5205;52.168;5.420;2023-07-20T10:10:56;2.35;;;0.60;;
10319;SDS011;5205;52.168;5.420;2023-07-20T10:13:25;2.08;;;0.65;;
10319;SDS011;5205;52.168;5.420;2023-07-20T10:15:53;1.08;;;0.50;;
10319;SDS011;5205;52.168;5.420;2023-07-20T10:18:22;1.20;;;0.60;;
10319;SDS011;5205;52.168;5.420;2023-07-20T10:20:54;1.27;;;0.52;;
10319;SDS011;5205;52.168;5.420;2023-07-20T10:23:22;0.93;;;0.50;;
10319;SDS011;5205;52.168;5.420;2023-07-20T10:25:51;1.02;;;0.52;;
10319;SDS011;5205;52.168;5.420;2023-07-20T10:28:19;1.08;;;0.60;;
10319;SDS011;5205;52.168;5.420;2023-07-20T10:30:48;0.68;;;0.50;;
10319;SDS011;5205;52.168;5.420;2023-07-20T10:33:15;0.35;;;0.35;;
10319;SDS011;5205;52.168;5.420;2023-07-20T10:35:50;1.40;;;0.60;;
10319;SDS011;5205;52.168;5.420;2023-07-20T10:38:18;0.98;;;0.55;;
10319;SDS011;5205;52.168;5.420;2023-07-20T10:40:54;0.65;;;0.50;;
10319;SDS011;5205;52.168;5.420;2023-07-20T10:43:22;1.20;;;0.80;;
10319;SDS011;5205;52.168;5.420;2023-07-20T10:45:51;1.48;;;0.57;;
10319;SDS011;5205;52.168;5.420;2023-07-20T10:48:19;1.77;;;0.60;;
10319;SDS011;5205;52.168;5.420;2023-07-20T10:51:08;1.27;;;0.90;;
10319;SDS011;5205;52.168;5.420;2023-07-20T10:53:33;0.82;;;0.50;;
10319;SDS011;5205;52.168;5.420;2023-07-20T10:56:12;1.50;;;0.70;;
10319;SDS011;5205;52.168;5.420;2023-07-20T10:58:40;2.22;;;0.80;;
10319;SDS011;5205;52.168;5.420;2023-07-20T11:01:08;0.82;;;0.50;;
10319;SDS011;5205;52.168;5.420;2023-07-20T11:03:36;1.95;;;0.63;;
10319;SDS011;5205;52.168;5.420;2023-07-20T11:08:54;0.95;;;0.60;;
10319;SDS011;5205;52.168;5.420;2023-07-20T11:11:25;0.65;;;0.40;;
10319;SDS011;5205;52.168;5.420;2023-07-20T11:13:55;2.65;;;0.63;;
10319;SDS011;5205;52.168;5.420;2023-07-20T11:16:33;1.02;;;0.40;;
10319;SDS011;5205;52.168;5.420;2023-07-20T11:19:00;2.75;;;0.80;;
10319;SDS011;5205;52.168;5.420;2023-07-20T11:21:28;2.20;;;0.75;;
10319;SDS011;5205;52.168;5.420;2023-07-20T11:23:55;2.60;;;0.60;;
10319;SDS011;5205;52.168;5.420;2023-07-20T11:26:22;1.33;;;0.65;;
10319;SDS011;5205;52.168;5.420;2023-07-20T11:28:51;0.38;;;0.35;;
10319;SDS011;5205;52.168;5.420;2023-07-20T11:31:18;0.43;;;0.30;;
10319;SDS011;5205;52.168;5.420;2023-07-20T11:33:46;0.60;;;0.40;;
10319;SDS011;5205;52.168;5.420;2023-07-20T11:36:13;1.27;;;0.90;;
10319;SDS011;5205;52.168;5.420;2023-07-20T11:38:43;0.52;;;0.50;;
10319;SDS011;5205;52.168;5.420;2023-07-20T11:41:12;1.60;;;0.90;;
10319;SDS011;5205;52.168;5.420;2023-07-20T11:43:40;1.58;;;0.70;;
10319;SDS011;5205;52.168;5.420;2023-07-20T11:46:09;2.25;;;0.70;;
10319;SDS011;5205;52.168;5.420;2023-07-20T11:48:36;4.40;;;1.15;;
10319;SDS011;5205;52.168;5.420;2023-07-20T11:51:05;2.10;;;0.52;;
10319;SDS011;5205;52.168;5.420;2023-07-20T11:53:32;0.50;;;0.50;;
10319;SDS011;5205;52.168;5.420;2023-07-20T11:55:59;2.58;;;0.70;;
10319;SDS011;5205;52.168;5.420;2023-07-20T11:58:27;1.55;;;0.57;;
10319;SDS011;5205;52.168;5.420;2023-07-20T12:00:55;1.23;;;0.40;;
10319;SDS011;5205;52.168;5.420;2023-07-20T12:03:24;1.23;;;0.40;;
10319;SDS011;5205;52.168;5.420;2023-07-20T12:05:51;0.93;;;0.60;;
10319;SDS011;5205;52.168;5.420;2023-07-20T12:08:18;0.85;;;0.55;;
10319;SDS011;5205;52.168;5.420;2023-07-20T12:10:46;0.82;;;0.40;;
10319;SDS011;5205;52.168;5.420;2023-07-20T12:13:15;1.02;;;0.40;;
10319;SDS011;5205;52.168;5.420;2023-07-20T12:15:43;0.98;;;0.50;;
10319;SDS011;5205;52.168;5.420;2023-07-20T12:18:10;0.70;;;0.45;;
10319;SDS011;5205;52.168;5.420;2023-07-20T12:20:38;3.53;;;0.70;;
10319;SDS011;5205;52.168;5.420;2023-07-20T12:23:08;2.15;;;0.77;;
10319;SDS011;5205;52.168;5.420;2023-07-20T12:25:38;0.60;;;0.43;;
10319;SDS011;5205;52.168;5.420;2023-07-20T12:28:06;0.63;;;0.50;;
10319;SDS011;5205;52.168;5.420;2023-07-20T12:30:34;0.68;;;0.57;;
10319;SDS011;5205;52.168;5.420;2023-07-20T12:33:01;1.27;;;0.60;;
10319;SDS011;5205;52.168;5.420;2023-07-20T12:35:29;2.35;;;0.80;;
10319;SDS011;5205;52.168;5.420;2023-07-20T12:37:57;0.82;;;0.50;;
10319;SDS011;5205;52.168;5.420;2023-07-20T12:40:25;1.20;;;0.70;;
10319;SDS011;5205;52.168;5.420;2023-07-20T12:42:52;0.57;;;0.43;;
10319;SDS011;5205;52.168;5.420;2023-07-20T12:45:19;1.30;;;0.70;;
10319;SDS011;5205;52.168;5.420;2023-07-20T12:47:47;0.98;;;0.70;;
10319;SDS011;5205;52.168;5.420;2023-07-20T12:50:14;1.48;;;0.70;;
10319;SDS011;5205;52.168;5.420;2023-07-20T12:52:41;1.10;;;0.55;;
10319;SDS011;5205;52.168;5.420;2023-07-20T12:55:09;0.85;;;0.50;;
10319;SDS011;5205;52.168;5.420;2023-07-20T12:57:37;1.40;;;0.60;;
10319;SDS011;5205;52.168;5.420;2023-07-20T13:00:05;0.52;;;0.50;;
10319;SDS011;5205;52.168;5.420;2023-07-20T13:02:33;1.80;;;0.60;;
10319;SDS011;5205;52.168;5.420;2023-07-20T13:05:00;2.88;;;0.90;;
10319;SDS011;5205;52.168;5.420;2023-07-20T13:07:30;2.67;;;0.60;;
10319;SDS011;5205;52.168;5.420;2023-07-20T13:09:58;1.05;;;0.60;;
10319;SDS011;5205;52.168;5.420;2023-07-20T13:12:27;1.17;;;0.65;;
10319;SDS011;5205;52.168;5.420;2023-07-20T13:14:54;1.35;;;0.60;;
10319;SDS011;5205;52.168;5.420;2023-07-20T13:17:21;0.63;;;0.50;;
10319;SDS011;5205;52.168;5.420;2023-07-20T13:19:48;1.88;;;0.60;;
10319;SDS011;5205;52.168;5.420;2023-07-20T13:22:16;0.70;;;0.57;;
10319;SDS011;5205;52.168;5.420;2023-07-20T13:24:44;2.47;;;1.00;;
10319;SDS011;5205;52.168;5.420;2023-07-20T13:27:11;1.83;;;0.80;;
10319;SDS011;5205;52.168;5.420;2023-07-20T13:29:41;2.38;;;0.75;;
10319;SDS011;5205;52.168;5.420;2023-07-20T13:32:09;1.45;;;0.90;;
10319;SDS011;5205;52.168;5.420;2023-07-20T13:34:36;0.70;;;0.60;;
10319;SDS011;5205;52.168;5.420;2023-07-20T13:37:04;1.42;;;0.80;;
10319;SDS011;5205;52.168;5.420;2023-07-20T13:39:31;4.30;;;0.90;;
10319;SDS011;5205;52.168;5.420;2023-07-20T13:41:58;1.13;;;0.70;;
10319;SDS011;5205;52.168;5.420;2023-07-20T13:44:27;1.40;;;0.55;;
10319;SDS011;5205;52.168;5.420;2023-07-20T13:46:55;3.33;;;1.00;;
10319;SDS011;5205;52.168;5.420;2023-07-20T13:49:23;1.75;;;0.85;;
10319;SDS011;5205;52.168;5.420;2023-07-20T13:51:50;1.38;;;0.80;;
10319;SDS011;5205;52.168;5.420;2023-07-20T13:54:17;3.15;;;0.98;;
10319;SDS011;5205;52.168;5.420;2023-07-20T13:56:44;2.00;;;0.90;;
10319;SDS011;5205;52.168;5.420;2023-07-20T13:59:11;3.38;;;0.90;;
10319;SDS011;5205;52.168;5.420;2023-07-20T14:01:38;0.98;;;0.70;;
10319;SDS011;5205;52.168;5.420;2023-07-20T14:04:08;1.50;;;0.80;;
10319;SDS011;5205;52.168;5.420;2023-07-20T14:06:35;3.03;;;0.98;;
10319;SDS011;5205;52.168;5.420;2023-07-20T14:09:02;1.25;;;0.70;;
10319;SDS011;5205;52.168;5.420;2023-07-20T14:11:29;2.30;;;1.10;;
10319;SDS011;5205;52.168;5.420;2023-07-20T14:13:56;2.72;;;1.02;;
10319;SDS011;5205;52.168;5.420;2023-07-20T14:16:24;2.05;;;0.80;;
10319;SDS011;5205;52.168;5.420;2023-07-20T14:18:51;1.40;;;0.80;;
10319;SDS011;5205;52.168;5.420;2023-07-20T14:21:19;2.10;;;0.90;;
10319;SDS011;5205;52.168;5.420;2023-07-20T14:23:47;2.33;;;0.73;;
10319;SDS011;5205;52.168;5.420;2023-07-20T14:26:14;1.70;;;0.90;;
10319;SDS011;5205;52.168;5.420;2023-07-20T14:28:41;1.20;;;0.70;;
10319;SDS011;5205;52.168;5.420;2023-07-20T14:31:08;3.17;;;0.93;;
10319;SDS011;5205;52.168;5.420;2023-07-20T14:33:36;1.20;;;0.82;;
10319;SDS011;5205;52.168;5.420;2023-07-20T14:36:03;1.23;;;0.70;;
10319;SDS011;5205;52.168;5.420;2023-07-20T14:38:33;0.95;;;0.70;;
10319;SDS011;5205;52.168;5.420;2023-07-20T14:41:00;0.98;;;0.80;;
10319;SDS011;5205;52.168;5.420;2023-07-20T14:43:27;1.33;;;0.50;;
10319;SDS011;5205;52.168;5.420;2023-07-20T14:45:54;2.55;;;0.68;;
10319;SDS011;5205;52.168;5.420;2023-07-20T14:48:21;1.73;;;1.00;;
10319;SDS011;5205;52.168;5.420;2023-07-20T14:50:48;2.30;;;0.98;;
10319;SDS011;5205;52.168;5.420;2023-07-20T14:53:15;4.90;;;1.00;;
10319;SDS011;5205;52.168;5.420;2023-07-20T14:55:44;4.22;;;0.93;;
10319;SDS011;5205;52.168;5.420;2023-07-20T14:58:11;3.92;;;0.80;;
10319;SDS011;5205;52.168;5.420;2023-07-20T15:00:38;1.15;;;0.60;;
10319;SDS011;5205;52.168;5.420;2023-07-20T15:03:05;1.10;;;0.80;;
10319;SDS011;5205;52.168;5.420;2023-07-20T15:05:34;0.95;;;0.70;;
10319;SDS011;5205;52.168;5.420;2023-07-20T15:08:03;2.92;;;0.88;;